Time;durP1;ratioP1;P1;durP2;ratioP2;P2;SDS_P1;SDS_P2;PMS_P1;PMS_P2;Temp;Humidity;BMP_temperature;BMP_pressure;BME280_temperature;BME280_humidity;BME280_pressure;Samples;Min_cycle;Max_cycle;Signal;HPM_P1;HPM_P2
2021/03/05 00:01:00;;;;;;;12.87;8.70;;;5.00;99.90;;;;;;2096275;28;20181;-63
2021/03/05 00:02:01;;;;;;;12.80;8.40;;;5.00;99.90;;;;;;2097044;28;20455;-63
2021/03/05 00:03:02;;;;;;;14.57;9.03;;;5.00;99.90;;;;;;2097938;28;20247;-63
2021/03/05 00:04:03;;;;;;;13.27;8.18;;;5.00;99.90;;;;;;2098518;28;20186;-63
2021/03/05 00:05:06;;;;;;;12.97;8.40;;;5.00;99.90;;;;;;2095060;28;20229;-63
2021/03/05 00:06:07;;;;;;;10.82;8.98;;;5.00;99.90;;;;;;2098516;28;20855;-63
2021/03/05 00:07:08;;;;;;;14.43;9.18;;;5.00;99.90;;;;;;2098426;28;20185;-63
2021/03/05 00:08:10;;;;;;;13.70;9.23;;;5.10;99.90;;;;;;2098560;28;20184;-63
2021/03/05 00:09:12;;;;;;;13.52;9.73;;;5.10;99.90;;;;;;2098259;28;20180;-63
2021/03/05 00:10:19;;;;;;;13.48;9.15;;;5.10;99.90;;;;;;2089520;28;20209;-62
2021/03/05 00:11:20;;;;;;;15.20;9.93;;;5.10;99.90;;;;;;2089927;28;20203;-62
2021/03/05 00:12:22;;;;;;;11.93;9.00;;;5.10;99.90;;;;;;2089756;28;20198;-62
2021/03/05 00:13:25;;;;;;;15.98;10.45;;;5.10;99.90;;;;;;2089950;28;20175;-63
2021/03/05 00:14:25;;;;;;;11.20;8.38;;;5.10;99.90;;;;;;2098696;28;20656;-62
2021/03/05 00:15:43;;;;;;;14.43;8.40;;;5.10;99.90;;;;;;2098834;28;20191;-63
2021/03/05 00:16:43;;;;;;;12.48;8.10;;;5.10;99.90;;;;;;2098707;28;20594;-61
2021/03/05 00:17:44;;;;;;;11.37;8.63;;;5.10;99.90;;;;;;2098760;28;20230;-63
2021/03/05 00:18:45;;;;;;;13.93;8.87;;;5.10;99.90;;;;;;2098886;28;20186;-62
2021/03/05 00:19:45;;;;;;;10.47;7.87;;;5.10;99.90;;;;;;2098320;28;20182;-62
2021/03/05 00:20:54;;;;;;;11.80;8.53;;;5.10;99.90;;;;;;2098427;28;20594;-65
2021/03/05 00:21:54;;;;;;;12.93;8.57;;;5.00;99.90;;;;;;2098691;28;20173;-62
2021/03/05 00:22:57;;;;;;;10.40;8.47;;;5.00;99.90;;;;;;2098653;28;20273;-62
2021/03/05 00:23:57;;;;;;;13.00;9.82;;;5.00;99.90;;;;;;2098494;28;20621;-62
2021/03/05 00:24:58;;;;;;;14.00;8.50;;;5.00;99.90;;;;;;2089539;28;20207;-62
2021/03/05 00:25:59;;;;;;;12.70;8.67;;;5.00;99.90;;;;;;2089675;28;20681;-63
2021/03/05 00:27:00;;;;;;;13.50;9.63;;;5.00;99.90;;;;;;2098565;28;20231;-62
2021/03/05 00:28:00;;;;;;;12.07;9.13;;;5.00;99.90;;;;;;2098498;28;20254;-62
2021/03/05 00:29:01;;;;;;;12.83;9.00;;;5.00;99.90;;;;;;2089587;28;20195;-63
2021/03/05 00:30:07;;;;;;;12.77;9.38;;;5.10;99.90;;;;;;2089840;28;20216;-62
2021/03/05 00:31:08;;;;;;;13.18;9.27;;;5.10;99.90;;;;;;2097941;28;20170;-63
2021/03/05 00:32:08;;;;;;;12.63;9.50;;;5.10;99.90;;;;;;2098611;28;20169;-63
2021/03/05 00:33:09;;;;;;;15.57;9.53;;;5.10;99.90;;;;;;2098614;28;20579;-62
2021/03/05 00:34:11;;;;;;;10.63;8.83;;;5.10;99.90;;;;;;2098568;28;20220;-63
2021/03/05 00:35:14;;;;;;;13.05;9.57;;;5.10;99.90;;;;;;2098528;28;20215;-61
2021/03/05 00:36:15;;;;;;;15.68;9.90;;;5.10;99.90;;;;;;2089362;28;20593;-63
2021/03/05 00:37:16;;;;;;;12.63;9.40;;;5.10;99.90;;;;;;2089584;28;20231;-62
2021/03/05 00:38:16;;;;;;;17.47;10.47;;;5.10;99.90;;;;;;2098617;28;20271;-63
2021/03/05 00:39:17;;;;;;;13.93;10.73;;;5.00;99.90;;;;;;2089499;28;20448;-64
2021/03/05 00:40:20;;;;;;;15.87;10.40;;;5.00;99.90;;;;;;2089424;28;20227;-62
2021/03/05 00:41:21;;;;;;;13.68;9.70;;;5.00;99.90;;;;;;2097880;28;20239;-62
2021/03/05 00:42:22;;;;;;;16.70;10.40;;;4.90;99.90;;;;;;2098556;28;20298;-62
2021/03/05 00:43:22;;;;;;;15.13;10.43;;;4.90;99.90;;;;;;2098346;28;20219;-62
2021/03/05 00:44:24;;;;;;;17.57;10.57;;;4.90;99.90;;;;;;2098465;28;20839;-62
2021/03/05 00:45:25;;;;;;;13.90;9.48;;;4.90;99.90;;;;;;2098371;28;20185;-62
2021/03/05 00:46:25;;;;;;;13.57;10.10;;;4.90;99.90;;;;;;2098392;28;20217;-63
2021/03/05 00:47:26;;;;;;;16.20;10.83;;;4.90;99.90;;;;;;2098583;28;20192;-62
2021/03/05 00:48:27;;;;;;;17.33;10.90;;;4.90;99.90;;;;;;2098519;28;20184;-63
2021/03/05 00:49:28;;;;;;;16.23;10.53;;;5.00;99.90;;;;;;2098618;28;20264;-63
2021/03/05 00:50:28;;;;;;;15.50;9.98;;;5.00;99.90;;;;;;2098424;28;20213;-63
2021/03/05 00:51:29;;;;;;;15.93;10.50;;;5.00;99.90;;;;;;2097898;28;20183;-63
2021/03/05 00:52:30;;;;;;;16.13;10.70;;;5.00;99.90;;;;;;2098413;28;20175;-62
2021/03/05 00:53:30;;;;;;;13.97;10.50;;;5.00;99.90;;;;;;2098477;28;20255;-63
2021/03/05 00:54:31;;;;;;;15.23;10.60;;;4.90;99.90;;;;;;2098417;28;20183;-63
2021/03/05 00:55:32;;;;;;;14.17;10.73;;;4.90;99.90;;;;;;2098474;28;20557;-62
2021/03/05 00:56:33;;;;;;;16.10;11.67;;;4.90;99.90;;;;;;2098451;28;20657;-62
2021/03/05 00:57:34;;;;;;;15.53;10.90;;;4.90;99.90;;;;;;2098271;28;20660;-63
2021/03/05 00:58:35;;;;;;;16.77;11.25;;;4.90;99.90;;;;;;2098090;28;20259;-63
2021/03/05 00:59:36;;;;;;;15.53;11.67;;;4.90;99.90;;;;;;2098325;28;20182;-63
2021/03/05 01:00:37;;;;;;;17.13;12.37;;;4.90;99.90;;;;;;2098154;28;20196;-63
2021/03/05 01:01:38;;;;;;;16.95;11.27;;;4.90;99.90;;;;;;2097867;28;20748;-63
2021/03/05 01:02:38;;;;;;;17.03;11.93;;;4.90;99.90;;;;;;2098010;28;20183;-63
2021/03/05 01:03:39;;;;;;;18.50;12.30;;;4.90;99.90;;;;;;2097868;28;20655;-64
2021/03/05 01:04:40;;;;;;;18.27;11.70;;;4.90;99.90;;;;;;2098174;28;20177;-63
2021/03/05 01:05:41;;;;;;;16.45;11.40;;;4.90;99.90;;;;;;2098053;28;20261;-63
2021/03/05 01:06:42;;;;;;;16.03;11.30;;;4.90;99.90;;;;;;2098193;28;20794;-62
2021/03/05 01:07:42;;;;;;;17.53;11.90;;;5.00;99.90;;;;;;2097994;28;20182;-64
2021/03/05 01:08:43;;;;;;;14.63;11.13;;;5.00;99.90;;;;;;2097979;28;20651;-63
2021/03/05 01:09:44;;;;;;;13.67;10.00;;;4.90;99.90;;;;;;2097903;28;20184;-63
2021/03/05 01:10:45;;;;;;;15.30;11.95;;;5.00;99.90;;;;;;2097874;28;20270;-63
2021/03/05 01:11:46;;;;;;;14.77;10.83;;;4.90;99.90;;;;;;2097553;28;20728;-63
2021/03/05 01:12:47;;;;;;;14.90;10.87;;;4.90;99.90;;;;;;2097997;28;20170;-63
2021/03/05 01:13:47;;;;;;;16.57;11.40;;;4.90;99.90;;;;;;2097577;28;20552;-63
2021/03/05 01:14:49;;;;;;;17.33;11.20;;;4.90;99.90;;;;;;2097285;28;20179;-63
2021/03/05 01:15:50;;;;;;;17.70;11.43;;;4.80;99.90;;;;;;2097945;28;20436;-63
2021/03/05 01:16:51;;;;;;;19.27;11.70;;;4.80;99.90;;;;;;2097999;28;20202;-63
2021/03/05 01:17:52;;;;;;;15.67;10.90;;;4.70;99.90;;;;;;2097927;28;20227;-63
2021/03/05 01:18:53;;;;;;;14.03;11.10;;;4.70;99.90;;;;;;2098018;28;20199;-63
2021/03/05 01:19:54;;;;;;;16.75;12.27;;;4.60;99.90;;;;;;2097689;28;20177;-62
2021/03/05 01:20:55;;;;;;;17.50;11.40;;;4.60;99.90;;;;;;2097358;28;20726;-62
2021/03/05 01:21:55;;;;;;;13.73;9.80;;;4.60;99.90;;;;;;2097999;28;20204;-63
2021/03/05 01:22:56;;;;;;;13.27;10.60;;;4.60;99.90;;;;;;2098091;28;20232;-62
2021/03/05 01:23:57;;;;;;;14.60;10.38;;;4.60;99.90;;;;;;2098012;28;20323;-63
2021/03/05 01:24:58;;;;;;;13.57;10.38;;;4.60;99.90;;;;;;2097833;28;20187;-63
2021/03/05 01:25:59;;;;;;;13.40;9.27;;;4.60;99.90;;;;;;2097971;28;20206;-63
2021/03/05 01:27:00;;;;;;;14.35;10.32;;;4.60;99.90;;;;;;2097883;28;20217;-62
2021/03/05 01:28:01;;;;;;;13.63;9.67;;;4.60;99.90;;;;;;2097835;28;20188;-62
2021/03/05 01:29:02;;;;;;;12.80;8.95;;;4.60;99.90;;;;;;2097905;28;20176;-64
2021/03/05 01:30:06;;;;;;;12.80;9.48;;;4.60;99.90;;;;;;2097746;28;20290;-63
2021/03/05 01:31:07;;;;;;;11.27;8.02;;;4.70;99.90;;;;;;2097025;28;20254;-62
2021/03/05 01:32:08;;;;;;;12.80;7.93;;;4.70;99.90;;;;;;2097842;28;20177;-63
2021/03/05 01:33:09;;;;;;;12.90;8.30;;;4.70;99.90;;;;;;2097956;28;20180;-63
2021/03/05 01:34:09;;;;;;;13.70;7.93;;;4.70;99.90;;;;;;2097835;28;20180;-63
2021/03/05 01:35:20;;;;;;;10.80;7.80;;;4.70;99.90;;;;;;2097775;28;20603;-63
2021/03/05 01:36:21;;;;;;;10.35;7.25;;;4.70;99.90;;;;;;2097730;28;20161;-63
2021/03/05 01:37:21;;;;;;;10.33;7.77;;;4.60;99.90;;;;;;2097692;28;20766;-63
2021/03/05 01:38:22;;;;;;;13.57;9.13;;;4.60;99.90;;;;;;2097692;28;20165;-64
2021/03/05 01:39:23;;;;;;;14.10;9.27;;;4.60;99.90;;;;;;2097710;28;20202;-63
2021/03/05 01:40:39;;;;;;;12.27;9.10;;;4.60;99.90;;;;;;2097564;28;20290;-63
2021/03/05 01:41:39;;;;;;;14.13;9.65;;;4.50;99.90;;;;;;2097019;28;20169;-63
2021/03/05 01:42:41;;;;;;;14.63;9.33;;;4.50;99.90;;;;;;2088726;28;20273;-63
2021/03/05 01:43:42;;;;;;;14.38;9.88;;;4.50;99.90;;;;;;2088976;28;20181;-63
2021/03/05 01:44:43;;;;;;;13.90;10.13;;;4.50;99.90;;;;;;2097735;28;20688;-63
2021/03/05 01:45:46;;;;;;;17.60;11.50;;;4.50;99.90;;;;;;2097691;28;20187;-63
2021/03/05 01:46:47;;;;;;;16.65;11.20;;;4.50;99.90;;;;;;2097547;28;20231;-63
2021/03/05 01:47:52;;;;;;;19.03;12.33;;;4.40;99.90;;;;;;2097731;28;20181;-63
2021/03/05 01:48:53;;;;;;;19.30;12.70;;;4.40;99.90;;;;;;2097729;28;20177;-64
2021/03/05 01:49:54;;;;;;;20.07;12.77;;;4.40;99.90;;;;;;2097582;28;20242;-63
2021/03/05 01:51:13;;;;;;;21.47;13.53;;;4.40;99.90;;;;;;2097064;28;20184;-63
2021/03/05 01:52:13;;;;;;;20.83;14.15;;;4.40;99.90;;;;;;2097694;28;20165;-62
2021/03/05 01:53:16;;;;;;;21.87;13.50;;;4.40;99.90;;;;;;2097581;28;20184;-63
2021/03/05 01:54:16;;;;;;;22.90;14.10;;;4.30;99.90;;;;;;2097738;28;20279;-63
2021/03/05 01:55:19;;;;;;;24.13;14.70;;;4.30;99.90;;;;;;2097585;28;20589;-63
2021/03/05 01:56:38;;;;;;;21.77;14.02;;;4.30;99.90;;;;;;2097808;28;20168;-63
2021/03/05 01:57:39;;;;;;;25.15;15.82;;;4.30;99.90;;;;;;2097308;28;20184;-63
2021/03/05 01:58:40;;;;;;;28.65;16.52;;;4.30;99.90;;;;;;2097725;28;20180;-63
2021/03/05 01:59:41;;;;;;;27.73;17.10;;;4.30;99.90;;;;;;2097471;28;20191;-63
2021/03/05 02:00:50;;;;;;;26.40;15.50;;;4.40;99.90;;;;;;2097648;28;20271;-64
2021/03/05 02:01:51;;;;;;;24.45;16.10;;;4.30;99.90;;;;;;2097533;28;20161;-63
2021/03/05 02:02:53;;;;;;;27.27;16.90;;;4.30;99.90;;;;;;2097692;28;20226;-63
2021/03/05 02:03:54;;;;;;;29.80;17.40;;;4.30;99.90;;;;;;2097301;28;20186;-63
2021/03/05 02:04:55;;;;;;;30.87;18.23;;;4.20;99.90;;;;;;2097608;28;20666;-63
2021/03/05 02:05:56;;;;;;;27.27;17.67;;;4.20;99.90;;;;;;2097459;28;20178;-63
2021/03/05 02:06:57;;;;;;;29.10;18.27;;;4.20;99.90;;;;;;2097690;28;20233;-63
2021/03/05 02:07:58;;;;;;;30.43;17.70;;;4.20;99.90;;;;;;2097486;28;20234;-63
2021/03/05 02:08:58;;;;;;;28.53;18.47;;;4.20;99.90;;;;;;2097447;28;20175;-62
2021/03/05 02:09:59;;;;;;;35.87;18.27;;;4.10;99.90;;;;;;2094024;28;20222;-63
2021/03/05 02:11:00;;;;;;;29.80;17.60;;;4.10;99.90;;;;;;2096969;28;20552;-63
2021/03/05 02:12:03;;;;;;;33.43;18.33;;;4.10;99.90;;;;;;2097414;28;20385;-63
2021/03/05 02:13:04;;;;;;;35.13;20.48;;;4.10;99.90;;;;;;2097602;28;20169;-63
2021/03/05 02:14:08;;;;;;;33.17;19.38;;;4.10;99.90;;;;;;2097305;28;20208;-63
2021/03/05 02:15:10;;;;;;;33.25;19.25;;;4.10;99.90;;;;;;2088707;28;20185;-64
2021/03/05 02:16:38;;;;;;;36.35;19.52;;;4.10;99.90;;;;;;2088934;28;20211;-63
2021/03/05 02:18:10;;;;;;;36.05;19.60;;;4.10;99.90;;;;;;2097436;28;20160;-63
2021/03/05 02:19:47;;;;;;;32.90;19.00;;;4.10;99.90;;;;;;2097575;28;20195;-64
2021/03/05 02:21:31;;;;;;;37.33;19.50;;;4.00;99.90;;;;;;2097388;28;20175;-63
2021/03/05 02:22:59;;;;;;;38.80;19.67;;;4.00;99.90;;;;;;2097461;28;20160;-64
2021/03/05 02:24:33;;;;;;;44.97;20.40;;;4.10;99.90;;;;;;2097506;28;20260;-63
2021/03/05 02:26:01;;;;;;;41.47;21.20;;;4.10;99.90;;;;;;2097194;28;20208;-64
2021/03/05 02:27:42;;;;;;;46.40;21.60;;;4.10;99.90;;;;;;2097450;28;20190;-64
2021/03/05 02:29:21;;;;;;;39.53;19.77;;;4.10;99.90;;;;;;2088575;28;20182;-64
2021/03/05 02:31:08;;;;;;;40.15;20.60;;;4.10;99.90;;;;;;2093803;28;20211;-63
2021/03/05 02:32:17;;;;;;;43.50;21.00;;;4.10;99.90;;;;;;2097563;28;20168;-63
2021/03/05 02:33:24;;;;;;;52.70;23.10;;;4.10;99.90;;;;;;2088833;28;20200;-64
2021/03/05 02:34:35;;;;;;;47.80;22.85;;;4.10;99.90;;;;;;2081339;28;20173;-63
2021/03/05 02:35:37;;;;;;;41.47;22.40;;;4.10;99.90;;;;;;2081954;28;20220;-64
2021/03/05 02:36:58;;;;;;;36.17;19.98;;;4.10;99.90;;;;;;2103742;22;20152;-67
2021/03/05 02:38:05;;;;;;;36.72;20.23;;;4.10;99.90;;;;;;2089087;28;20204;-68
2021/03/05 02:39:18;;;;;;;29.52;17.40;;;4.10;99.90;;;;;;2088437;28;20179;-66
2021/03/05 02:40:28;;;;;;;28.83;18.50;;;4.10;99.90;;;;;;2090289;28;20243;-65
2021/03/05 02:41:30;;;;;;;28.60;17.63;;;4.10;99.90;;;;;;2087608;28;20175;-64
2021/03/05 02:42:53;;;;;;;31.83;19.13;;;4.10;99.90;;;;;;2080493;28;20257;-65
2021/03/05 02:43:57;;;;;;;37.97;19.70;;;4.10;99.90;;;;;;2088429;28;20628;-66
2021/03/05 02:45:05;;;;;;;35.42;20.38;;;4.10;99.90;;;;;;2080656;28;20212;-66
2021/03/05 02:46:07;;;;;;;30.70;17.50;;;4.10;99.90;;;;;;2089480;28;20185;-66
2021/03/05 02:47:11;;;;;;;31.88;18.17;;;4.10;99.90;;;;;;2089140;28;20258;-69
2021/03/05 02:48:21;;;;;;;29.17;18.05;;;4.20;99.90;;;;;;2081156;28;20195;-68
2021/03/05 02:49:25;;;;;;;29.98;18.60;;;4.20;99.90;;;;;;2080254;28;20218;-69
2021/03/05 02:50:27;;;;;;;29.75;18.25;;;4.10;99.90;;;;;;2072696;28;20264;-66
2021/03/05 02:51:31;;;;;;;34.70;20.00;;;4.20;99.90;;;;;;2071865;28;20202;-66
2021/03/05 02:52:33;;;;;;;34.13;19.85;;;4.20;99.90;;;;;;2080692;28;20184;-67
2021/03/05 02:53:36;;;;;;;29.92;18.58;;;4.10;99.90;;;;;;2080153;28;20182;-68
2021/03/05 02:54:39;;;;;;;32.95;19.73;;;4.10;99.90;;;;;;2080509;28;20173;-67
2021/03/05 02:55:41;;;;;;;34.63;20.52;;;4.10;99.90;;;;;;2072421;28;20224;-69
2021/03/05 02:56:46;;;;;;;36.08;20.20;;;4.10;99.90;;;;;;2072462;28;20213;-69
2021/03/05 02:57:50;;;;;;;35.88;20.35;;;4.10;99.90;;;;;;2072481;28;20194;-68
2021/03/05 02:58:54;;;;;;;30.48;18.80;;;4.10;99.90;;;;;;2080628;28;20267;-68
2021/03/05 02:59:56;;;;;;;32.58;20.55;;;4.10;99.90;;;;;;2088351;28;20189;-67
2021/03/05 03:00:59;;;;;;;33.78;20.10;;;4.10;99.90;;;;;;2079957;28;20184;-69
2021/03/05 03:02:00;;;;;;;38.58;21.38;;;4.10;99.90;;;;;;2080527;28;20182;-67
2021/03/05 03:03:03;;;;;;;37.70;21.17;;;4.10;99.90;;;;;;2080425;28;20181;-68
2021/03/05 03:04:05;;;;;;;32.30;19.63;;;4.10;99.90;;;;;;2080652;28;20189;-68
2021/03/05 03:05:09;;;;;;;33.67;19.73;;;4.10;99.90;;;;;;2072400;28;20222;-68
2021/03/05 03:06:12;;;;;;;42.60;22.88;;;4.10;99.90;;;;;;2072627;28;20193;-68
2021/03/05 03:07:14;;;;;;;35.13;19.85;;;4.10;99.90;;;;;;2080484;28;20220;-69
2021/03/05 03:08:15;;;;;;;37.28;22.15;;;4.10;99.90;;;;;;2079897;28;20188;-65
2021/03/05 03:09:18;;;;;;;32.13;19.57;;;4.10;99.90;;;;;;2085934;28;20219;-65
2021/03/05 03:10:26;;;;;;;29.88;19.23;;;4.10;99.90;;;;;;2080504;28;20950;-69
2021/03/05 03:11:28;;;;;;;41.17;21.70;;;4.10;99.90;;;;;;2088086;28;20721;-68
2021/03/05 03:12:29;;;;;;;35.50;20.15;;;4.10;99.90;;;;;;2089246;28;20182;-68
2021/03/05 03:13:34;;;;;;;34.22;19.52;;;4.10;99.90;;;;;;2096716;28;20203;-68
2021/03/05 03:14:38;;;;;;;89.82;23.55;;;4.10;99.90;;;;;;2088651;28;20170;-68
2021/03/05 03:15:40;;;;;;;71.93;24.80;;;4.00;99.90;;;;;;2080678;28;20656;-68
2021/03/05 03:16:43;;;;;;;107.47;30.63;;;4.00;99.90;;;;;;2080235;28;20193;-68
2021/03/05 03:17:47;;;;;;;72.60;26.38;;;4.00;99.90;;;;;;2088463;28;20187;-66
2021/03/05 03:18:48;;;;;;;55.58;24.23;;;4.00;99.90;;;;;;2088993;28;20215;-66
2021/03/05 03:19:51;;;;;;;47.28;24.23;;;4.00;99.90;;;;;;2088293;28;20234;-65
2021/03/05 03:20:56;;;;;;;46.42;23.02;;;4.00;99.90;;;;;;2087924;28;20174;-68
2021/03/05 03:21:57;;;;;;;36.78;20.90;;;4.00;99.90;;;;;;2088515;28;20182;-68
2021/03/05 03:22:58;;;;;;;37.00;21.57;;;4.00;99.90;;;;;;2088524;28;20673;-68
2021/03/05 03:23:58;;;;;;;32.87;19.67;;;4.00;99.90;;;;;;2089190;28;20206;-69
2021/03/05 03:25:01;;;;;;;35.73;20.93;;;4.00;99.90;;;;;;2088383;28;20263;-68
2021/03/05 03:26:02;;;;;;;46.63;22.75;;;3.90;99.90;;;;;;2080519;28;20177;-68
2021/03/05 03:27:03;;;;;;;42.55;21.98;;;3.90;99.90;;;;;;2088369;28;20691;-67
2021/03/05 03:28:04;;;;;;;35.15;20.95;;;3.90;99.90;;;;;;2089014;28;20188;-68
2021/03/05 03:29:06;;;;;;;50.77;24.40;;;3.90;99.90;;;;;;2088351;28;20636;-67
2021/03/05 03:30:14;;;;;;;41.67;21.98;;;3.90;99.90;;;;;;2080131;28;20466;-67
2021/03/05 03:31:16;;;;;;;47.08;23.00;;;3.90;99.90;;;;;;2088004;28;20187;-68
2021/03/05 03:32:17;;;;;;;76.45;25.73;;;4.00;99.90;;;;;;2096667;28;20339;-65
2021/03/05 03:33:19;;;;;;;68.97;25.60;;;3.90;99.90;;;;;;2096505;28;20172;-66
2021/03/05 03:34:21;;;;;;;57.88;24.48;;;4.00;99.90;;;;;;2088296;28;20169;-66
2021/03/05 03:35:23;;;;;;;51.20;22.27;;;3.90;99.90;;;;;;2080313;28;20730;-67
2021/03/05 03:36:25;;;;;;;63.17;25.65;;;3.90;99.90;;;;;;2080394;28;20331;-69
2021/03/05 03:37:28;;;;;;;80.35;24.92;;;3.80;99.90;;;;;;2080583;28;20204;-67
2021/03/05 03:38:31;;;;;;;108.53;29.35;;;3.80;99.90;;;;;;2082243;28;20184;-66
2021/03/05 03:39:32;;;;;;;61.22;25.70;;;3.70;99.90;;;;;;2082395;28;20177;-66
2021/03/05 03:40:35;;;;;;;69.90;26.90;;;3.70;99.90;;;;;;2090127;28;20176;-66
2021/03/05 03:41:37;;;;;;;74.10;26.02;;;3.70;99.90;;;;;;2089518;28;20663;-66
2021/03/05 03:42:40;;;;;;;40.28;22.75;;;3.80;99.90;;;;;;2090219;28;20177;-66
2021/03/05 03:43:41;;;;;;;46.42;22.60;;;3.70;99.90;;;;;;2089883;28;20258;-66
2021/03/05 03:44:42;;;;;;;42.75;20.75;;;3.80;99.90;;;;;;2090007;28;20745;-67
2021/03/05 03:45:43;;;;;;;39.10;19.90;;;3.80;99.90;;;;;;2090478;28;20184;-67
2021/03/05 03:46:48;;;;;;;33.47;20.00;;;3.70;99.90;;;;;;2090646;28;20197;-65
2021/03/05 03:47:53;;;;;;;32.10;18.63;;;3.80;99.90;;;;;;2089898;28;20175;-66
2021/03/05 03:49:01;;;;;;;33.47;19.25;;;3.80;99.90;;;;;;2082407;28;20193;-68
2021/03/05 03:50:05;;;;;;;31.42;19.00;;;3.70;99.90;;;;;;2082635;28;20275;-67
2021/03/05 03:51:09;;;;;;;31.02;18.88;;;3.80;99.90;;;;;;2085079;28;20197;-65
2021/03/05 03:52:45;;;;;;;27.52;17.08;;;3.80;99.90;;;;;;2085799;28;20277;-65
2021/03/05 03:53:47;;;;;;;29.92;17.55;;;3.80;99.90;;;;;;2090306;28;20246;-65
2021/03/05 03:54:50;;;;;;;31.15;18.15;;;3.80;99.90;;;;;;2095128;28;20195;-65
2021/03/05 03:55:53;;;;;;;27.95;17.00;;;3.80;99.90;;;;;;2082555;28;20554;-67
2021/03/05 03:56:59;;;;;;;25.83;16.40;;;3.80;99.90;;;;;;2081847;28;20836;-65
2021/03/05 03:58:01;;;;;;;25.92;16.17;;;3.70;99.90;;;;;;2082365;28;20161;-65
2021/03/05 03:59:03;;;;;;;23.95;15.65;;;3.80;99.90;;;;;;2089808;28;20218;-65
2021/03/05 04:00:04;;;;;;;27.02;16.75;;;3.70;99.90;;;;;;2089656;28;20636;-65
2021/03/05 04:01:11;;;;;;;22.80;15.82;;;3.70;99.90;;;;;;2089227;28;20210;-66
2021/03/05 04:02:12;;;;;;;24.85;15.93;;;3.70;99.90;;;;;;2090354;28;20211;-66
2021/03/05 04:03:17;;;;;;;29.00;17.70;;;3.70;99.90;;;;;;2089692;28;20836;-66
2021/03/05 04:04:19;;;;;;;28.67;18.02;;;3.70;99.90;;;;;;2081823;28;20853;-65
2021/03/05 04:05:26;;;;;;;28.70;17.02;;;3.70;99.90;;;;;;2081578;28;20181;-66
2021/03/05 04:06:28;;;;;;;25.10;15.35;;;3.70;99.90;;;;;;2082144;28;20259;-66
2021/03/05 04:07:31;;;;;;;27.75;17.65;;;3.80;99.90;;;;;;2089449;28;20177;-66
2021/03/05 04:08:37;;;;;;;30.05;18.13;;;3.70;99.90;;;;;;2089641;28;20176;-65
2021/03/05 04:09:40;;;;;;;28.00;16.75;;;3.80;99.90;;;;;;2082224;28;20552;-66
2021/03/05 04:10:41;;;;;;;32.75;18.70;;;3.70;99.90;;;;;;2089621;28;20250;-64
2021/03/05 04:11:42;;;;;;;36.80;20.80;;;3.70;99.90;;;;;;2088979;28;20245;-65
2021/03/05 04:12:45;;;;;;;35.40;19.77;;;3.70;99.90;;;;;;2089402;28;20184;-67
2021/03/05 04:13:46;;;;;;;34.97;20.85;;;3.70;99.90;;;;;;2089460;28;20189;-65
2021/03/05 04:14:47;;;;;;;35.22;21.20;;;3.60;99.90;;;;;;2089607;28;20191;-66
2021/03/05 04:15:49;;;;;;;33.47;20.93;;;3.50;99.90;;;;;;2090148;28;20183;-65
2021/03/05 04:16:53;;;;;;;36.00;21.02;;;3.50;99.90;;;;;;2089641;28;20265;-66
2021/03/05 04:17:54;;;;;;;38.65;22.20;;;3.50;99.90;;;;;;2081563;28;20203;-66
2021/03/05 04:18:54;;;;;;;36.67;22.10;;;3.50;99.90;;;;;;2089513;28;20192;-65
2021/03/05 04:19:55;;;;;;;41.43;23.03;;;3.50;99.90;;;;;;2088609;28;20181;-66
2021/03/05 04:21:03;;;;;;;38.30;21.98;;;3.60;99.90;;;;;;2081289;28;20189;-65
2021/03/05 04:22:05;;;;;;;39.50;22.25;;;3.50;99.90;;;;;;2081766;28;20177;-65
2021/03/05 04:23:06;;;;;;;41.83;22.63;;;3.50;99.90;;;;;;2081262;28;20181;-66
2021/03/05 04:24:07;;;;;;;40.78;22.45;;;3.60;99.90;;;;;;2080909;28;20181;-66
2021/03/05 04:25:14;;;;;;;40.50;23.20;;;3.50;99.90;;;;;;2081488;28;20193;-66
2021/03/05 04:26:14;;;;;;;42.15;23.45;;;3.50;99.90;;;;;;2081102;28;20185;-66
2021/03/05 04:27:15;;;;;;;40.87;22.57;;;3.50;99.90;;;;;;2081323;28;20188;-66
2021/03/05 04:28:16;;;;;;;41.25;21.98;;;3.50;99.90;;;;;;2081656;28;20264;-67
2021/03/05 04:29:17;;;;;;;42.93;24.70;;;3.50;99.90;;;;;;2081728;28;20660;-66
2021/03/05 04:30:18;;;;;;;53.40;26.60;;;3.50;99.90;;;;;;2080889;28;20628;-66
2021/03/05 04:31:19;;;;;;;47.72;25.60;;;3.50;99.90;;;;;;2080623;28;20675;-65
2021/03/05 04:32:20;;;;;;;45.58;24.45;;;3.50;99.90;;;;;;2081699;28;20223;-65
2021/03/05 04:33:21;;;;;;;50.40;26.53;;;3.50;99.90;;;;;;2081877;28;20185;-65
2021/03/05 04:34:22;;;;;;;43.95;25.45;;;3.50;99.90;;;;;;2081477;28;20555;-65
2021/03/05 04:35:22;;;;;;;52.27;27.50;;;3.40;99.90;;;;;;2081920;28;20180;-66
2021/03/05 04:36:23;;;;;;;51.53;27.47;;;3.50;99.90;;;;;;2081522;28;20170;-66
2021/03/05 04:37:24;;;;;;;52.23;26.00;;;3.40;99.90;;;;;;2081562;28;20272;-66
2021/03/05 04:38:25;;;;;;;52.73;27.07;;;3.40;99.90;;;;;;2081528;28;20747;-66
2021/03/05 04:39:25;;;;;;;59.77;28.23;;;3.30;99.90;;;;;;2081913;28;20205;-67
2021/03/05 04:40:26;;;;;;;62.53;28.17;;;3.30;99.90;;;;;;2080813;28;20177;-65
2021/03/05 04:41:27;;;;;;;65.67;30.63;;;3.20;99.90;;;;;;2080587;28;20572;-65
2021/03/05 04:42:27;;;;;;;60.20;29.17;;;3.20;99.90;;;;;;2081510;28;20738;-66
2021/03/05 04:43:28;;;;;;;74.83;32.47;;;3.30;99.90;;;;;;2081685;28;20267;-66
2021/03/05 04:44:29;;;;;;;72.97;32.70;;;3.30;99.90;;;;;;2081497;28;20263;-66
2021/03/05 04:45:29;;;;;;;85.73;32.40;;;3.30;99.90;;;;;;2081005;28;20264;-66
2021/03/05 04:46:30;;;;;;;61.67;29.63;;;3.30;99.90;;;;;;2080807;28;20542;-65
2021/03/05 04:47:31;;;;;;;60.73;29.00;;;3.20;99.90;;;;;;2081599;28;20264;-66
2021/03/05 04:48:32;;;;;;;131.23;34.60;;;3.30;99.90;;;;;;2081259;28;20749;-64
2021/03/05 04:49:33;;;;;;;381.85;49.33;;;3.20;99.90;;;;;;2081526;28;20234;-66
2021/03/05 04:50:34;;;;;;;361.97;49.10;;;3.20;99.90;;;;;;2081215;28;20382;-65
2021/03/05 04:51:35;;;;;;;338.60;48.10;;;3.20;99.90;;;;;;2081030;28;20269;-65
2021/03/05 04:52:35;;;;;;;212.57;41.93;;;3.20;99.90;;;;;;2080769;28;20165;-66
2021/03/05 04:53:36;;;;;;;218.07;44.27;;;3.20;99.90;;;;;;2081136;28;20223;-65
2021/03/05 04:54:37;;;;;;;238.83;42.27;;;3.20;99.90;;;;;;2081448;28;20219;-66
2021/03/05 04:55:40;;;;;;;503.67;54.37;;;3.20;99.90;;;;;;2081703;28;20192;-66
2021/03/05 04:56:40;;;;;;;457.52;46.65;;;3.20;99.90;;;;;;2081248;28;20196;-66
2021/03/05 04:57:41;;;;;;;496.93;58.53;;;3.20;99.90;;;;;;2081576;28;20188;-66
2021/03/05 04:58:42;;;;;;;633.03;65.27;;;3.20;99.90;;;;;;2081367;28;20208;-65
2021/03/05 04:59:42;;;;;;;808.37;63.30;;;3.20;99.90;;;;;;2081563;28;20207;-66
2021/03/05 05:00:43;;;;;;;566.73;64.73;;;3.20;99.90;;;;;;2081378;28;20208;-65
2021/03/05 05:01:44;;;;;;;566.83;55.60;;;3.20;99.90;;;;;;2081006;28;20605;-66
2021/03/05 05:02:44;;;;;;;740.00;70.13;;;3.20;99.90;;;;;;2081439;28;20181;-66
2021/03/05 05:03:45;;;;;;;536.67;61.07;;;3.20;99.90;;;;;;2081515;28;20231;-66
2021/03/05 05:04:46;;;;;;;708.57;71.87;;;3.20;99.90;;;;;;2081491;28;20682;-65
2021/03/05 05:05:46;;;;;;;420.67;48.50;;;3.20;99.90;;;;;;2081472;28;20185;-66
2021/03/05 05:06:47;;;;;;;902.33;77.73;;;3.20;99.90;;;;;;2081343;28;20201;-66
2021/03/05 05:07:48;;;;;;;576.27;61.17;;;3.10;99.90;;;;;;2081409;28;20672;-66
2021/03/05 05:08:48;;;;;;;492.20;54.67;;;3.10;99.90;;;;;;2081471;28;20199;-67
2021/03/05 05:09:51;;;;;;;407.87;48.87;;;3.20;99.90;;;;;;2080728;28;20840;-66
2021/03/05 05:10:52;;;;;;;263.27;41.60;;;3.10;99.90;;;;;;2080230;28;20695;-66
2021/03/05 05:11:53;;;;;;;147.85;36.75;;;3.20;99.90;;;;;;2081376;28;20185;-67
2021/03/05 05:12:53;;;;;;;448.53;60.40;;;3.20;99.90;;;;;;2080597;28;20177;-66
2021/03/05 05:13:54;;;;;;;247.90;41.67;;;3.20;99.90;;;;;;2080846;28;20184;-65
2021/03/05 05:14:55;;;;;;;238.47;39.10;;;3.20;99.90;;;;;;2081496;28;20183;-66
2021/03/05 05:15:56;;;;;;;199.00;44.57;;;3.20;99.90;;;;;;2081370;28;20272;-67
2021/03/05 05:16:57;;;;;;;271.10;50.70;;;3.20;99.90;;;;;;2081343;28;20197;-66
2021/03/05 05:17:57;;;;;;;400.47;50.40;;;3.30;99.90;;;;;;2081198;28;20641;-67
2021/03/05 05:18:58;;;;;;;258.33;42.30;;;3.30;99.90;;;;;;2081399;28;20181;-66
2021/03/05 05:19:59;;;;;;;111.43;35.20;;;3.30;99.90;;;;;;2081215;28;20169;-66
2021/03/05 05:20:59;;;;;;;184.70;39.83;;;3.30;99.90;;;;;;2080708;28;20267;-66
2021/03/05 05:22:00;;;;;;;144.40;36.40;;;3.30;99.90;;;;;;2081235;28;20260;-66
2021/03/05 05:23:01;;;;;;;246.90;40.60;;;3.30;99.90;;;;;;2081234;28;20214;-66
2021/03/05 05:24:02;;;;;;;163.17;39.97;;;3.30;99.90;;;;;;2081254;28;20173;-66
2021/03/05 05:25:05;;;;;;;196.03;40.73;;;3.20;99.90;;;;;;2081304;28;20264;-66
2021/03/05 05:26:05;;;;;;;135.23;35.72;;;3.20;99.90;;;;;;2080534;28;20656;-66
2021/03/05 05:27:06;;;;;;;225.17;40.43;;;3.20;99.90;;;;;;2080691;28;20205;-66